sensor_id;sensor_type;location;lat;lon;timestamp;P1;durP1;ratioP1;P2;durP2;ratioP2
39066;SDS011;24821;51.988;6.020;2023-09-08T00:01:49;7.55;;;6.95;;
39066;SDS011;24821;51.988;6.020;2023-09-08T00:04:14;8.88;;;8.18;;
39066;SDS011;24821;51.988;6.020;2023-09-08T00:06:40;8.90;;;8.15;;
39066;SDS011;24821;51.988;6.020;2023-09-08T00:09:06;8.57;;;7.97;;
39066;SDS011;24821;51.988;6.020;2023-09-08T00:11:32;8.07;;;7.40;;
39066;SDS011;24821;51.988;6.020;2023-09-08T00:13:58;6.97;;;6.38;;
39066;SDS011;24821;51.988;6.020;2023-09-08T00:16:23;7.70;;;6.97;;
39066;SDS011;24821;51.988;6.020;2023-09-08T00:18:49;7.55;;;7.10;;
39066;SDS011;24821;51.988;6.020;2023-09-08T00:21:15;8.13;;;6.93;;
39066;SDS011;24821;51.988;6.020;2023-09-08T00:23:40;8.00;;;7.20;;
39066;SDS011;24821;51.988;6.020;2023-09-08T00:26:06;7.68;;;7.05;;
39066;SDS011;24821;51.988;6.020;2023-09-08T00:28:32;8.05;;;7.35;;
39066;SDS011;24821;51.988;6.020;2023-09-08T00:30:57;8.55;;;7.82;;
39066;SDS011;24821;51.988;6.020;2023-09-08T00:33:25;8.02;;;7.28;;
39066;SDS011;24821;51.988;6.020;2023-09-08T00:35:50;8.85;;;8.02;;
39066;SDS011;24821;51.988;6.020;2023-09-08T00:38:18;7.85;;;7.22;;
39066;SDS011;24821;51.988;6.020;2023-09-08T00:40:44;9.15;;;8.05;;
39066;SDS011;24821;51.988;6.020;2023-09-08T00:43:09;8.02;;;7.43;;
39066;SDS011;24821;51.988;6.020;2023-09-08T00:45:38;8.05;;;7.45;;
39066;SDS011;24821;51.988;6.020;2023-09-08T00:48:07;7.25;;;6.72;;
39066;SDS011;24821;51.988;6.020;2023-09-08T00:50:33;7.85;;;7.28;;
39066;SDS011;24821;51.988;6.020;2023-09-08T00:53:00;8.07;;;7.47;;
39066;SDS011;24821;51.988;6.020;2023-09-08T00:55:26;8.02;;;7.43;;
39066;SDS011;24821;51.988;6.020;2023-09-08T00:57:52;7.88;;;7.38;;
39066;SDS011;24821;51.988;6.020;2023-09-08T01:00:17;8.82;;;8.02;;
39066;SDS011;24821;51.988;6.020;2023-09-08T01:02:43;8.40;;;7.70;;
39066;SDS011;24821;51.988;6.020;2023-09-08T01:05:10;9.25;;;7.47;;
39066;SDS011;24821;51.988;6.020;2023-09-08T01:07:35;8.75;;;7.88;;
39066;SDS011;24821;51.988;6.020;2023-09-08T01:10:01;8.40;;;7.72;;
39066;SDS011;24821;51.988;6.020;2023-09-08T01:12:31;9.00;;;8.30;;
39066;SDS011;24821;51.988;6.020;2023-09-08T01:14:59;8.95;;;8.15;;
39066;SDS011;24821;51.988;6.020;2023-09-08T01:17:25;7.63;;;7.03;;
39066;SDS011;24821;51.988;6.020;2023-09-08T01:19:52;7.70;;;7.28;;
39066;SDS011;24821;51.988;6.020;2023-09-08T01:22:37;7.32;;;6.93;;
39066;SDS011;24821;51.988;6.020;2023-09-08T01:25:28;7.93;;;7.32;;
39066;SDS011;24821;51.988;6.020;2023-09-08T01:27:55;8.82;;;7.53;;
39066;SDS011;24821;51.988;6.020;2023-09-08T01:30:23;8.63;;;7.93;;
39066;SDS011;24821;51.988;6.020;2023-09-08T01:32:51;8.00;;;7.50;;
39066;SDS011;24821;51.988;6.020;2023-09-08T01:35:19;9.27;;;8.57;;
39066;SDS011;24821;51.988;6.020;2023-09-08T01:37:45;8.00;;;7.45;;
39066;SDS011;24821;51.988;6.020;2023-09-08T01:40:12;8.85;;;8.00;;
39066;SDS011;24821;51.988;6.020;2023-09-08T01:42:39;10.75;;;8.27;;
39066;SDS011;24821;51.988;6.020;2023-09-08T01:45:05;7.38;;;6.93;;
39066;SDS011;24821;51.988;6.020;2023-09-08T01:47:32;8.32;;;7.50;;
39066;SDS011;24821;51.988;6.020;2023-09-08T01:49:58;7.30;;;6.70;;
39066;SDS011;24821;51.988;6.020;2023-09-08T01:52:24;8.77;;;8.02;;
39066;SDS011;24821;51.988;6.020;2023-09-08T01:54:50;8.60;;;7.82;;
39066;SDS011;24821;51.988;6.020;2023-09-08T01:57:15;9.60;;;8.10;;
39066;SDS011;24821;51.988;6.020;2023-09-08T01:59:41;9.00;;;8.25;;
39066;SDS011;24821;51.988;6.020;2023-09-08T02:02:07;9.32;;;7.85;;
39066;SDS011;24821;51.988;6.020;2023-09-08T02:04:32;6.60;;;6.10;;
39066;SDS011;24821;51.988;6.020;2023-09-08T02:06:58;8.52;;;7.75;;
39066;SDS011;24821;51.988;6.020;2023-09-08T02:09:34;8.60;;;7.78;;
39066;SDS011;24821;51.988;6.020;2023-09-08T02:12:01;7.95;;;7.25;;
39066;SDS011;24821;51.988;6.020;2023-09-08T02:14:27;9.02;;;8.05;;
39066;SDS011;24821;51.988;6.020;2023-09-08T02:16:53;8.23;;;7.63;;
39066;SDS011;24821;51.988;6.020;2023-09-08T02:19:19;8.90;;;8.00;;
39066;SDS011;24821;51.988;6.020;2023-09-08T02:21:45;7.88;;;7.25;;
39066;SDS011;24821;51.988;6.020;2023-09-08T02:24:11;8.25;;;7.55;;
39066;SDS011;24821;51.988;6.020;2023-09-08T02:26:40;8.07;;;7.43;;
39066;SDS011;24821;51.988;6.020;2023-09-08T02:29:06;8.13;;;7.47;;
39066;SDS011;24821;51.988;6.020;2023-09-08T02:31:32;8.52;;;7.82;;
39066;SDS011;24821;51.988;6.020;2023-09-08T02:33:58;8.20;;;7.40;;
39066;SDS011;24821;51.988;6.020;2023-09-08T02:36:23;7.55;;;6.95;;
39066;SDS011;24821;51.988;6.020;2023-09-08T02:38:52;7.90;;;7.38;;
39066;SDS011;24821;51.988;6.020;2023-09-08T02:41:18;8.85;;;8.15;;
39066;SDS011;24821;51.988;6.020;2023-09-08T02:43:44;8.60;;;7.28;;
39066;SDS011;24821;51.988;6.020;2023-09-08T02:46:10;9.55;;;8.75;;
39066;SDS011;24821;51.988;6.020;2023-09-08T02:48:36;7.70;;;7.13;;
39066;SDS011;24821;51.988;6.020;2023-09-08T02:51:01;8.48;;;7.78;;
39066;SDS011;24821;51.988;6.020;2023-09-08T02:53:27;8.70;;;7.90;;
39066;SDS011;24821;51.988;6.020;2023-09-08T02:55:54;7.82;;;7.32;;
39066;SDS011;24821;51.988;6.020;2023-09-08T02:58:20;7.75;;;7.25;;
39066;SDS011;24821;51.988;6.020;2023-09-08T03:00:46;8.25;;;7.55;;
39066;SDS011;24821;51.988;6.020;2023-09-08T03:03:11;7.90;;;7.40;;
39066;SDS011;24821;51.988;6.020;2023-09-08T03:05:37;8.85;;;7.97;;
39066;SDS011;24821;51.988;6.020;2023-09-08T03:08:03;7.07;;;6.63;;
39066;SDS011;24821;51.988;6.020;2023-09-08T03:10:30;8.52;;;7.82;;
39066;SDS011;24821;51.988;6.020;2023-09-08T03:12:59;10.50;;;7.57;;
39066;SDS011;24821;51.988;6.020;2023-09-08T03:15:31;8.63;;;7.93;;
39066;SDS011;24821;51.988;6.020;2023-09-08T03:17:57;8.35;;;7.53;;
39066;SDS011;24821;51.988;6.020;2023-09-08T03:20:23;8.13;;;7.47;;
39066;SDS011;24821;51.988;6.020;2023-09-08T03:22:53;8.60;;;7.80;;
39066;SDS011;24821;51.988;6.020;2023-09-08T03:25:19;8.05;;;7.25;;
39066;SDS011;24821;51.988;6.020;2023-09-08T03:27:45;8.10;;;7.38;;
39066;SDS011;24821;51.988;6.020;2023-09-08T03:30:10;8.55;;;7.95;;
39066;SDS011;24821;51.988;6.020;2023-09-08T03:32:37;8.55;;;7.70;;
39066;SDS011;24821;51.988;6.020;2023-09-08T03:35:02;9.25;;;8.50;;
39066;SDS011;24821;51.988;6.020;2023-09-08T03:37:32;9.20;;;8.20;;
39066;SDS011;24821;51.988;6.020;2023-09-08T03:39:58;8.27;;;7.57;;
39066;SDS011;24821;51.988;6.020;2023-09-08T03:42:24;7.57;;;7.00;;
39066;SDS011;24821;51.988;6.020;2023-09-08T03:44:49;9.18;;;7.95;;
39066;SDS011;24821;51.988;6.020;2023-09-08T03:47:15;9.13;;;8.20;;
39066;SDS011;24821;51.988;6.020;2023-09-08T03:49:40;8.85;;;7.97;;
39066;SDS011;24821;51.988;6.020;2023-09-08T03:52:06;8.35;;;7.75;;
39066;SDS011;24821;51.988;6.020;2023-09-08T03:54:32;8.82;;;8.02;;
39066;SDS011;24821;51.988;6.020;2023-09-08T03:56:58;8.38;;;7.60;;
39066;SDS011;24821;51.988;6.020;2023-09-08T03:59:23;7.82;;;7.25;;
39066;SDS011;24821;51.988;6.020;2023-09-08T04:01:49;9.07;;;7.30;;
39066;SDS011;24821;51.988;6.020;2023-09-08T04:04:15;8.65;;;7.75;;
39066;SDS011;24821;51.988;6.020;2023-09-08T04:06:41;9.15;;;7.93;;
39066;SDS011;24821;51.988;6.020;2023-09-08T04:09:06;8.98;;;8.18;;
39066;SDS011;24821;51.988;6.020;2023-09-08T04:11:32;8.95;;;8.13;;
39066;SDS011;24821;51.988;6.020;2023-09-08T04:13:58;8.98;;;8.15;;
39066;SDS011;24821;51.988;6.020;2023-09-08T04:16:23;8.40;;;7.75;;
39066;SDS011;24821;51.988;6.020;2023-09-08T04:18:50;9.80;;;8.80;;
39066;SDS011;24821;51.988;6.020;2023-09-08T04:21:16;7.90;;;7.25;;
39066;SDS011;24821;51.988;6.020;2023-09-08T04:23:41;8.85;;;7.70;;
39066;SDS011;24821;51.988;6.020;2023-09-08T04:26:07;10.57;;;8.88;;
39066;SDS011;24821;51.988;6.020;2023-09-08T04:28:32;8.68;;;7.97;;
39066;SDS011;24821;51.988;6.020;2023-09-08T04:30:58;9.35;;;8.23;;
39066;SDS011;24821;51.988;6.020;2023-09-08T04:33:24;8.98;;;8.15;;
39066;SDS011;24821;51.988;6.020;2023-09-08T04:35:49;8.23;;;7.60;;
39066;SDS011;24821;51.988;6.020;2023-09-08T04:38:15;9.15;;;8.25;;
39066;SDS011;24821;51.988;6.020;2023-09-08T04:40:40;8.40;;;7.60;;
39066;SDS011;24821;51.988;6.020;2023-09-08T04:43:09;8.80;;;8.10;;
39066;SDS011;24821;51.988;6.020;2023-09-08T04:45:34;8.93;;;8.18;;
39066;SDS011;24821;51.988;6.020;2023-09-08T04:48:00;8.57;;;7.88;;
39066;SDS011;24821;51.988;6.020;2023-09-08T04:50:26;8.88;;;8.00;;
39066;SDS011;24821;51.988;6.020;2023-09-08T04:52:51;10.60;;;9.70;;
39066;SDS011;24821;51.988;6.020;2023-09-08T04:55:17;10.07;;;8.93;;
39066;SDS011;24821;51.988;6.020;2023-09-08T04:57:44;9.18;;;8.30;;
39066;SDS011;24821;51.988;6.020;2023-09-08T05:00:10;10.70;;;9.60;;
39066;SDS011;24821;51.988;6.020;2023-09-08T05:02:36;8.75;;;8.05;;
39066;SDS011;24821;51.988;6.020;2023-09-08T05:05:02;9.50;;;8.40;;
39066;SDS011;24821;51.988;6.020;2023-09-08T05:07:28;10.02;;;8.77;;
39066;SDS011;24821;51.988;6.020;2023-09-08T05:09:54;8.60;;;7.90;;
39066;SDS011;24821;51.988;6.020;2023-09-08T05:12:19;12.80;;;9.60;;
39066;SDS011;24821;51.988;6.020;2023-09-08T05:14:45;11.20;;;8.40;;
39066;SDS011;24821;51.988;6.020;2023-09-08T05:17:10;9.07;;;8.38;;
39066;SDS011;24821;51.988;6.020;2023-09-08T05:19:36;10.00;;;9.10;;
39066;SDS011;24821;51.988;6.020;2023-09-08T05:22:04;9.50;;;8.75;;
39066;SDS011;24821;51.988;6.020;2023-09-08T05:24:32;9.85;;;8.85;;
39066;SDS011;24821;51.988;6.020;2023-09-08T05:26:57;9.50;;;8.75;;
39066;SDS011;24821;51.988;6.020;2023-09-08T05:29:23;10.57;;;8.75;;
39066;SDS011;24821;51.988;6.020;2023-09-08T05:31:49;8.73;;;8.00;;
39066;SDS011;24821;51.988;6.020;2023-09-08T05:34:14;8.95;;;8.05;;
39066;SDS011;24821;51.988;6.020;2023-09-08T05:36:40;10.95;;;8.63;;
39066;SDS011;24821;51.988;6.020;2023-09-08T05:39:07;9.60;;;8.77;;
39066;SDS011;24821;51.988;6.020;2023-09-08T05:41:33;11.05;;;9.10;;
39066;SDS011;24821;51.988;6.020;2023-09-08T05:43:58;13.25;;;11.38;;
39066;SDS011;24821;51.988;6.020;2023-09-08T05:46:25;10.50;;;9.50;;
39066;SDS011;24821;51.988;6.020;2023-09-08T05:48:50;8.20;;;7.60;;
39066;SDS011;24821;51.988;6.020;2023-09-08T05:51:16;9.50;;;8.80;;
39066;SDS011;24821;51.988;6.020;2023-09-08T05:53:41;9.27;;;8.52;;
39066;SDS011;24821;51.988;6.020;2023-09-08T05:56:07;10.38;;;9.38;;
39066;SDS011;24821;51.988;6.020;2023-09-08T05:58:33;10.20;;;9.27;;
39066;SDS011;24821;51.988;6.020;2023-09-08T06:01:02;10.05;;;9.18;;
39066;SDS011;24821;51.988;6.020;2023-09-08T06:03:28;9.65;;;8.88;;
39066;SDS011;24821;51.988;6.020;2023-09-08T06:05:55;10.18;;;9.35;;
39066;SDS011;24821;51.988;6.020;2023-09-08T06:08:21;12.70;;;9.38;;
39066;SDS011;24821;51.988;6.020;2023-09-08T06:10:46;10.77;;;9.35;;
39066;SDS011;24821;51.988;6.020;2023-09-08T06:13:12;9.88;;;9.07;;
39066;SDS011;24821;51.988;6.020;2023-09-08T06:15:38;10.07;;;9.13;;
39066;SDS011;24821;51.988;6.020;2023-09-08T06:18:03;10.27;;;9.50;;
39066;SDS011;24821;51.988;6.020;2023-09-08T06:20:29;9.55;;;8.65;;
39066;SDS011;24821;51.988;6.020;2023-09-08T06:22:55;9.30;;;8.40;;
39066;SDS011;24821;51.988;6.020;2023-09-08T06:25:21;9.95;;;8.70;;
39066;SDS011;24821;51.988;6.020;2023-09-08T06:27:46;10.13;;;9.27;;
39066;SDS011;24821;51.988;6.020;2023-09-08T06:30:12;10.05;;;9.05;;
39066;SDS011;24821;51.988;6.020;2023-09-08T06:32:39;9.90;;;9.10;;
39066;SDS011;24821;51.988;6.020;2023-09-08T06:35:05;10.80;;;9.77;;
39066;SDS011;24821;51.988;6.020;2023-09-08T06:37:36;10.70;;;9.73;;
39066;SDS011;24821;51.988;6.020;2023-09-08T06:40:05;10.25;;;9.25;;
39066;SDS011;24821;51.988;6.020;2023-09-08T06:42:32;12.27;;;10.85;;
39066;SDS011;24821;51.988;6.020;2023-09-08T06:44:58;18.33;;;14.82;;
39066;SDS011;24821;51.988;6.020;2023-09-08T06:47:24;17.70;;;15.43;;
39066;SDS011;24821;51.988;6.020;2023-09-08T06:49:50;27.58;;;20.00;;
39066;SDS011;24821;51.988;6.020;2023-09-08T06:52:16;16.83;;;12.98;;
39066;SDS011;24821;51.988;6.020;2023-09-08T06:54:42;12.73;;;11.52;;
39066;SDS011;24821;51.988;6.020;2023-09-08T06:57:10;11.50;;;10.38;;
39066;SDS011;24821;51.988;6.020;2023-09-08T06:59:36;10.27;;;9.45;;
39066;SDS011;24821;51.988;6.020;2023-09-08T07:02:02;10.60;;;9.40;;
39066;SDS011;24821;51.988;6.020;2023-09-08T07:04:29;10.35;;;9.45;;
39066;SDS011;24821;51.988;6.020;2023-09-08T07:06:55;10.93;;;9.32;;
39066;SDS011;24821;51.988;6.020;2023-09-08T07:09:21;8.77;;;7.95;;
39066;SDS011;24821;51.988;6.020;2023-09-08T07:11:46;14.48;;;10.43;;
39066;SDS011;24821;51.988;6.020;2023-09-08T07:14:12;12.13;;;10.93;;
39066;SDS011;24821;51.988;6.020;2023-09-08T07:16:37;10.65;;;9.55;;
39066;SDS011;24821;51.988;6.020;2023-09-08T07:19:03;12.57;;;11.43;;
39066;SDS011;24821;51.988;6.020;2023-09-08T07:21:29;10.70;;;9.65;;
39066;SDS011;24821;51.988;6.020;2023-09-08T07:23:54;10.57;;;9.77;;
39066;SDS011;24821;51.988;6.020;2023-09-08T07:26:20;11.90;;;10.70;;
39066;SDS011;24821;51.988;6.020;2023-09-08T07:28:45;15.45;;;10.32;;
39066;SDS011;24821;51.988;6.020;2023-09-08T07:31:11;11.93;;;10.50;;
39066;SDS011;24821;51.988;6.020;2023-09-08T07:33:37;14.60;;;10.13;;
39066;SDS011;24821;51.988;6.020;2023-09-08T07:36:06;13.75;;;10.02;;
39066;SDS011;24821;51.988;6.020;2023-09-08T07:38:33;14.30;;;10.00;;
39066;SDS011;24821;51.988;6.020;2023-09-08T07:41:01;12.43;;;10.32;;
39066;SDS011;24821;51.988;6.020;2023-09-08T07:43:27;11.25;;;10.25;;
39066;SDS011;24821;51.988;6.020;2023-09-08T07:45:53;10.77;;;9.68;;
39066;SDS011;24821;51.988;6.020;2023-09-08T07:48:19;11.30;;;10.35;;
39066;SDS011;24821;51.988;6.020;2023-09-08T07:50:44;10.95;;;10.05;;
39066;SDS011;24821;51.988;6.020;2023-09-08T07:53:10;11.98;;;10.80;;
39066;SDS011;24821;51.988;6.020;2023-09-08T07:55:36;10.60;;;9.70;;
39066;SDS011;24821;51.988;6.020;2023-09-08T07:58:01;13.05;;;11.15;;
39066;SDS011;24821;51.988;6.020;2023-09-08T08:00:28;11.73;;;10.63;;
39066;SDS011;24821;51.988;6.020;2023-09-08T08:02:54;10.65;;;9.13;;
39066;SDS011;24821;51.988;6.020;2023-09-08T08:05:21;11.77;;;9.07;;
39066;SDS011;24821;51.988;6.020;2023-09-08T08:07:47;10.02;;;9.18;;
39066;SDS011;24821;51.988;6.020;2023-09-08T08:10:13;9.68;;;8.77;;
39066;SDS011;24821;51.988;6.020;2023-09-08T08:12:39;9.98;;;9.00;;
39066;SDS011;24821;51.988;6.020;2023-09-08T08:15:06;8.13;;;7.45;;
39066;SDS011;24821;51.988;6.020;2023-09-08T08:17:35;13.80;;;8.77;;
39066;SDS011;24821;51.988;6.020;2023-09-08T08:20:01;8.98;;;8.25;;
39066;SDS011;24821;51.988;6.020;2023-09-08T08:22:34;8.75;;;7.95;;
39066;SDS011;24821;51.988;6.020;2023-09-08T08:25:03;16.30;;;14.52;;
39066;SDS011;24821;51.988;6.020;2023-09-08T08:27:29;12.98;;;10.75;;
39066;SDS011;24821;51.988;6.020;2023-09-08T08:29:56;11.05;;;9.88;;
39066;SDS011;24821;51.988;6.020;2023-09-08T08:32:26;10.02;;;9.10;;
39066;SDS011;24821;51.988;6.020;2023-09-08T08:34:52;8.20;;;7.38;;
39066;SDS011;24821;51.988;6.020;2023-09-08T08:37:17;7.43;;;6.78;;
39066;SDS011;24821;51.988;6.020;2023-09-08T08:39:43;6.68;;;6.03;;
39066;SDS011;24821;51.988;6.020;2023-09-08T08:42:09;6.20;;;5.60;;
39066;SDS011;24821;51.988;6.020;2023-09-08T08:44:36;7.35;;;6.55;;
39066;SDS011;24821;51.988;6.020;2023-09-08T08:47:03;9.68;;;7.20;;
39066;SDS011;24821;51.988;6.020;2023-09-08T08:49:31;7.95;;;7.18;;
39066;SDS011;24821;51.988;6.020;2023-09-08T08:51:57;8.25;;;7.53;;
39066;SDS011;24821;51.988;6.020;2023-09-08T08:54:24;8.30;;;7.57;;
39066;SDS011;24821;51.988;6.020;2023-09-08T08:56:50;7.70;;;7.03;;
39066;SDS011;24821;51.988;6.020;2023-09-08T08:59:16;7.05;;;6.43;;
39066;SDS011;24821;51.988;6.020;2023-09-08T09:01:43;6.53;;;5.97;;
39066;SDS011;24821;51.988;6.020;2023-09-08T09:04:10;4.93;;;4.53;;
39066;SDS011;24821;51.988;6.020;2023-09-08T09:06:36;7.07;;;5.70;;
39066;SDS011;24821;51.988;6.020;2023-09-08T09:09:01;6.53;;;5.93;;
39066;SDS011;24821;51.988;6.020;2023-09-08T09:11:30;4.88;;;4.47;;
39066;SDS011;24821;51.988;6.020;2023-09-08T09:13:56;8.00;;;5.05;;
39066;SDS011;24821;51.988;6.020;2023-09-08T09:16:23;5.55;;;5.13;;
39066;SDS011;24821;51.988;6.020;2023-09-08T09:18:55;7.63;;;5.57;;
39066;SDS011;24821;51.988;6.020;2023-09-08T09:21:22;6.05;;;5.45;;
39066;SDS011;24821;51.988;6.020;2023-09-08T09:23:48;7.20;;;6.60;;
39066;SDS011;24821;51.988;6.020;2023-09-08T09:26:24;11.38;;;7.40;;
39066;SDS011;24821;51.988;6.020;2023-09-08T09:28:51;6.85;;;6.35;;
39066;SDS011;24821;51.988;6.020;2023-09-08T09:31:19;8.48;;;7.68;;
39066;SDS011;24821;51.988;6.020;2023-09-08T09:33:50;8.02;;;7.45;;
39066;SDS011;24821;51.988;6.020;2023-09-08T09:36:28;6.60;;;5.93;;
39066;SDS011;24821;51.988;6.020;2023-09-08T09:38:55;8.45;;;7.78;;
39066;SDS011;24821;51.988;6.020;2023-09-08T09:41:23;7.20;;;6.70;;
39066;SDS011;24821;51.988;6.020;2023-09-08T09:43:49;7.82;;;7.22;;
39066;SDS011;24821;51.988;6.020;2023-09-08T09:46:14;9.00;;;8.20;;
39066;SDS011;24821;51.988;6.020;2023-09-08T09:48:40;8.70;;;7.90;;
39066;SDS011;24821;51.988;6.020;2023-09-08T09:51:16;7.45;;;6.85;;
39066;SDS011;24821;51.988;6.020;2023-09-08T09:53:42;7.78;;;6.97;;
39066;SDS011;24821;51.988;6.020;2023-09-08T09:56:09;8.35;;;7.65;;
39066;SDS011;24821;51.988;6.020;2023-09-08T09:58:36;7.25;;;6.63;;
39066;SDS011;24821;51.988;6.020;2023-09-08T10:01:02;8.23;;;7.45;;
39066;SDS011;24821;51.988;6.020;2023-09-08T10:03:29;7.85;;;7.30;;
39066;SDS011;24821;51.988;6.020;2023-09-08T10:05:56;7.20;;;6.55;;
39066;SDS011;24821;51.988;6.020;2023-09-08T10:08:21;7.22;;;6.65;;
39066;SDS011;24821;51.988;6.020;2023-09-08T10:10:47;8.35;;;6.63;;
39066;SDS011;24821;51.988;6.020;2023-09-08T10:13:16;8.02;;;7.22;;
39066;SDS011;24821;51.988;6.020;2023-09-08T10:15:48;9.00;;;7.32;;
39066;SDS011;24821;51.988;6.020;2023-09-08T10:18:15;7.82;;;7.32;;
39066;SDS011;24821;51.988;6.020;2023-09-08T10:20:44;8.15;;;7.35;;
39066;SDS011;24821;51.988;6.020;2023-09-08T10:23:25;8.02;;;7.00;;
39066;SDS011;24821;51.988;6.020;2023-09-08T10:25:57;7.70;;;7.20;;
39066;SDS011;24821;51.988;6.020;2023-09-08T10:28:28;7.07;;;6.57;;
39066;SDS011;24821;51.988;6.020;2023-09-08T10:30:54;8.02;;;7.38;;
39066;SDS011;24821;51.988;6.020;2023-09-08T10:33:20;6.60;;;6.07;;
39066;SDS011;24821;51.988;6.020;2023-09-08T10:35:48;7.50;;;6.78;;
39066;SDS011;24821;51.988;6.020;2023-09-08T10:38:33;6.57;;;5.95;;
39066;SDS011;24821;51.988;6.020;2023-09-08T10:44:06;7.25;;;6.53;;
39066;SDS011;24821;51.988;6.020;2023-09-08T10:46:33;8.90;;;6.05;;
39066;SDS011;24821;51.988;6.020;2023-09-08T10:49:06;6.47;;;5.93;;
39066;SDS011;24821;51.988;6.020;2023-09-08T10:51:33;7.73;;;5.30;;
39066;SDS011;24821;51.988;6.020;2023-09-08T10:53:59;7.88;;;6.35;;
39066;SDS011;24821;51.988;6.020;2023-09-08T10:57:08;7.13;;;6.32;;
39066;SDS011;24821;51.988;6.020;2023-09-08T10:59:28;6.90;;;6.30;;
39066;SDS011;24821;51.988;6.020;2023-09-08T11:02:02;7.78;;;7.10;;
39066;SDS011;24821;51.988;6.020;2023-09-08T11:04:29;9.05;;;6.47;;
39066;SDS011;24821;51.988;6.020;2023-09-08T11:06:58;9.65;;;6.68;;
39066;SDS011;24821;51.988;6.020;2023-09-08T11:09:24;6.85;;;6.25;;
39066;SDS011;24821;51.988;6.020;2023-09-08T11:11:49;6.88;;;6.28;;
39066;SDS011;24821;51.988;6.020;2023-09-08T11:14:15;6.97;;;5.75;;
39066;SDS011;24821;51.988;6.020;2023-09-08T11:16:41;6.63;;;6.03;;
39066;SDS011;24821;51.988;6.020;2023-09-08T11:19:07;9.00;;;7.18;;
39066;SDS011;24821;51.988;6.020;2023-09-08T11:21:34;6.03;;;5.63;;
39066;SDS011;24821;51.988;6.020;2023-09-08T11:24:01;8.32;;;7.65;;
39066;SDS011;24821;51.988;6.020;2023-09-08T11:26:29;7.88;;;7.32;;
39066;SDS011;24821;51.988;6.020;2023-09-08T11:28:58;9.23;;;8.48;;
39066;SDS011;24821;51.988;6.020;2023-09-08T11:31:23;7.35;;;6.95;;
39066;SDS011;24821;51.988;6.020;2023-09-08T11:33:49;8.45;;;7.93;;
39066;SDS011;24821;51.988;6.020;2023-09-08T11:36:19;6.22;;;5.82;;
39066;SDS011;24821;51.988;6.020;2023-09-08T11:38:45;7.40;;;6.90;;
39066;SDS011;24821;51.988;6.020;2023-09-08T11:41:11;7.63;;;7.03;;
39066;SDS011;24821;51.988;6.020;2023-09-08T11:43:37;7.13;;;6.63;;
39066;SDS011;24821;51.988;6.020;2023-09-08T11:46:02;6.82;;;6.25;;
39066;SDS011;24821;51.988;6.020;2023-09-08T11:48:28;7.10;;;6.60;;
39066;SDS011;24821;51.988;6.020;2023-09-08T11:50:54;6.65;;;6.25;;
39066;SDS011;24821;51.988;6.020;2023-09-08T11:53:20;8.07;;;7.13;;
39066;SDS011;24821;51.988;6.020;2023-09-08T11:55:46;7.45;;;6.95;;
39066;SDS011;24821;51.988;6.020;2023-09-08T11:58:12;6.22;;;5.82;;
39066;SDS011;24821;51.988;6.020;2023-09-08T12:00:39;6.72;;;6.22;;
39066;SDS011;24821;51.988;6.020;2023-09-08T12:03:12;5.25;;;4.95;;
39066;SDS011;24821;51.988;6.020;2023-09-08T12:05:43;5.28;;;4.93;;
39066;SDS011;24821;51.988;6.020;2023-09-08T12:08:09;6.03;;;5.63;;
39066;SDS011;24821;51.988;6.020;2023-09-08T12:10:41;5.82;;;5.35;;
39066;SDS011;24821;51.988;6.020;2023-09-08T12:13:08;5.70;;;5.30;;
39066;SDS011;24821;51.988;6.020;2023-09-08T12:15:38;6.30;;;5.70;;
39066;SDS011;24821;51.988;6.020;2023-09-08T12:20:35;5.80;;;4.88;;
39066;SDS011;24821;51.988;6.020;2023-09-08T12:23:02;4.35;;;4.00;;
39066;SDS011;24821;51.988;6.020;2023-09-08T12:25:29;5.07;;;4.65;;
39066;SDS011;24821;51.988;6.020;2023-09-08T12:27:59;5.05;;;4.65;;
39066;SDS011;24821;51.988;6.020;2023-09-08T12:30:26;5.00;;;4.70;;
39066;SDS011;24821;51.988;6.020;2023-09-08T12:32:57;4.75;;;4.35;;
39066;SDS011;24821;51.988;6.020;2023-09-08T12:35:25;5.30;;;4.80;;
39066;SDS011;24821;51.988;6.020;2023-09-08T12:37:57;4.82;;;4.43;;
39066;SDS011;24821;51.988;6.020;2023-09-08T12:40:28;4.53;;;4.15;;
39066;SDS011;24821;51.988;6.020;2023-09-08T12:42:56;5.03;;;4.57;;
39066;SDS011;24821;51.988;6.020;2023-09-08T12:45:23;4.13;;;3.67;;
39066;SDS011;24821;51.988;6.020;2023-09-08T12:47:50;4.57;;;4.25;;
39066;SDS011;24821;51.988;6.020;2023-09-08T12:50:15;5.05;;;4.65;;
39066;SDS011;24821;51.988;6.020;2023-09-08T12:52:41;6.13;;;5.53;;
39066;SDS011;24821;51.988;6.020;2023-09-08T12:55:07;4.13;;;3.83;;
39066;SDS011;24821;51.988;6.020;2023-09-08T12:57:33;6.15;;;4.50;;
39066;SDS011;24821;51.988;6.020;2023-09-08T12:59:59;7.38;;;4.57;;
39066;SDS011;24821;51.988;6.020;2023-09-08T13:02:25;6.05;;;4.75;;
39066;SDS011;24821;51.988;6.020;2023-09-08T13:04:51;5.70;;;5.20;;
39066;SDS011;24821;51.988;6.020;2023-09-08T13:07:16;4.78;;;4.45;;
39066;SDS011;24821;51.988;6.020;2023-09-08T13:09:43;5.00;;;4.60;;
39066;SDS011;24821;51.988;6.020;2023-09-08T13:12:09;4.38;;;4.07;;
39066;SDS011;24821;51.988;6.020;2023-09-08T13:14:35;5.28;;;4.90;;
39066;SDS011;24821;51.988;6.020;2023-09-08T13:17:01;4.47;;;4.18;;
39066;SDS011;24821;51.988;6.020;2023-09-08T13:19:27;4.78;;;4.38;;
39066;SDS011;24821;51.988;6.020;2023-09-08T13:21:52;4.88;;;4.43;;
39066;SDS011;24821;51.988;6.020;2023-09-08T13:24:18;5.63;;;5.13;;
39066;SDS011;24821;51.988;6.020;2023-09-08T13:26:45;5.20;;;4.82;;
39066;SDS011;24821;51.988;6.020;2023-09-08T13:29:11;5.03;;;4.65;;
39066;SDS011;24821;51.988;6.020;2023-09-08T13:31:37;5.28;;;4.88;;
39066;SDS011;24821;51.988;6.020;2023-09-08T13:34:02;5.70;;;5.20;;
39066;SDS011;24821;51.988;6.020;2023-09-08T13:36:28;5.65;;;5.18;;
39066;SDS011;24821;51.988;6.020;2023-09-08T13:38:53;6.40;;;4.72;;
39066;SDS011;24821;51.988;6.020;2023-09-08T13:41:19;4.45;;;4.18;;
39066;SDS011;24821;51.988;6.020;2023-09-08T13:43:44;5.43;;;5.05;;
39066;SDS011;24821;51.988;6.020;2023-09-08T13:46:10;4.82;;;4.53;;
39066;SDS011;24821;51.988;6.020;2023-09-08T13:48:35;4.88;;;4.57;;
39066;SDS011;24821;51.988;6.020;2023-09-08T13:51:04;5.35;;;4.95;;
39066;SDS011;24821;51.988;6.020;2023-09-08T13:53:30;6.18;;;5.68;;
39066;SDS011;24821;51.988;6.020;2023-09-08T13:55:56;4.78;;;4.47;;
39066;SDS011;24821;51.988;6.020;2023-09-08T13:58:21;4.65;;;4.35;;
39066;SDS011;24821;51.988;6.020;2023-09-08T14:00:47;4.82;;;4.43;;
39066;SDS011;24821;51.988;6.020;2023-09-08T14:03:16;5.07;;;4.30;;
39066;SDS011;24821;51.988;6.020;2023-09-08T14:05:43;5.13;;;4.35;;
39066;SDS011;24821;51.988;6.020;2023-09-08T14:08:09;5.03;;;4.63;;
39066;SDS011;24821;51.988;6.020;2023-09-08T14:10:35;5.18;;;4.78;;
39066;SDS011;24821;51.988;6.020;2023-09-08T14:13:00;5.03;;;4.57;;
39066;SDS011;24821;51.988;6.020;2023-09-08T14:15:26;4.78;;;4.47;;
39066;SDS011;24821;51.988;6.020;2023-09-08T14:17:52;5.18;;;4.43;;
39066;SDS011;24821;51.988;6.020;2023-09-08T14:20:18;5.20;;;4.60;;
39066;SDS011;24821;51.988;6.020;2023-09-08T14:22:43;5.57;;;5.07;;
39066;SDS011;24821;51.988;6.020;2023-09-08T14:25:09;4.88;;;4.55;;
39066;SDS011;24821;51.988;6.020;2023-09-08T14:27:35;7.82;;;5.47;;
39066;SDS011;24821;51.988;6.020;2023-09-08T14:30:02;5.00;;;4.68;;
39066;SDS011;24821;51.988;6.020;2023-09-08T14:32:29;4.75;;;4.35;;
39066;SDS011;24821;51.988;6.020;2023-09-08T14:34:54;4.60;;;4.40;;
39066;SDS011;24821;51.988;6.020;2023-09-08T14:37:21;5.20;;;4.90;;
39066;SDS011;24821;51.988;6.020;2023-09-08T14:39:47;4.72;;;4.32;;
39066;SDS011;24821;51.988;6.020;2023-09-08T14:42:13;5.75;;;5.35;;
39066;SDS011;24821;51.988;6.020;2023-09-08T14:44:40;5.75;;;5.15;;
39066;SDS011;24821;51.988;6.020;2023-09-08T14:47:06;5.68;;;5.18;;